createdAt,value
2023-04-04T00:02:10.418Z,1.60
2023-04-04T00:04:36.958Z,1.93
2023-04-04T00:07:03.542Z,2.10
2023-04-04T00:09:30.832Z,2.23
2023-04-04T00:11:57.653Z,2.23
2023-04-04T00:14:24.224Z,2.00
2023-04-04T00:16:50.762Z,2.20
2023-04-04T00:19:18.929Z,1.77
2023-04-04T00:21:48.453Z,2.03
2023-04-04T00:24:14.961Z,1.77
2023-04-04T00:26:41.721Z,1.40
2023-04-04T00:29:08.352Z,1.60
2023-04-04T00:31:35.075Z,1.90
2023-04-04T00:34:01.826Z,1.40
2023-04-04T00:36:28.438Z,2.10
2023-04-04T00:38:55.197Z,1.93
2023-04-04T00:41:22.546Z,1.90
2023-04-04T00:43:49.128Z,2.23
2023-04-04T00:46:17.602Z,2.00
2023-04-04T00:48:44.797Z,1.70
2023-04-04T00:51:11.568Z,1.57
2023-04-04T00:53:38.308Z,2.20
2023-04-04T00:56:05.721Z,1.67
2023-04-04T00:58:32.573Z,1.67
2023-04-04T01:01:01.536Z,1.40
2023-04-04T01:03:29.466Z,1.70
2023-04-04T01:05:56.820Z,1.40
2023-04-04T01:08:26.563Z,1.33
2023-04-04T01:10:53.944Z,1.40
2023-04-04T01:13:21.830Z,1.53
2023-04-04T01:15:50.857Z,1.20
2023-04-04T01:18:21.431Z,2.23
2023-04-04T01:21:00.817Z,1.57
2023-04-04T01:23:35.940Z,1.60
2023-04-04T01:26:05.673Z,1.47
2023-04-04T01:28:33.889Z,2.50
2023-04-04T01:31:04.926Z,1.50
2023-04-04T01:33:37.896Z,1.70
2023-04-04T01:36:19.449Z,1.47
2023-04-04T01:39:19.854Z,1.20
2023-04-04T01:41:48.243Z,1.40
2023-04-04T01:44:17.630Z,1.30
2023-04-04T01:46:44.200Z,2.70
2023-04-04T01:49:11.689Z,1.23
2023-04-04T01:51:40.424Z,1.50
2023-04-04T01:54:07.798Z,1.40
2023-04-04T01:56:34.907Z,1.60
2023-04-04T01:59:01.631Z,2.07
2023-04-04T02:01:28.607Z,1.87
2023-04-04T02:03:55.386Z,1.53
2023-04-04T02:06:22.550Z,1.97
2023-04-04T02:08:49.200Z,2.10
2023-04-04T02:11:15.841Z,2.10
2023-04-04T02:13:44.400Z,2.43
2023-04-04T02:16:14.033Z,1.53
2023-04-04T02:18:40.986Z,1.57
2023-04-04T02:21:07.830Z,1.53
2023-04-04T02:23:34.350Z,1.50
2023-04-04T02:26:00.963Z,1.80
2023-04-04T02:28:31.445Z,1.90
2023-04-04T02:31:04.865Z,1.53
2023-04-04T02:33:31.951Z,1.70
2023-04-04T02:36:02.375Z,1.63
2023-04-04T02:38:29.617Z,1.70
2023-04-04T02:40:56.231Z,2.00
2023-04-04T02:43:22.735Z,2.00
2023-04-04T02:45:50.652Z,2.00
2023-04-04T02:48:23.042Z,1.30
2023-04-04T02:50:51.869Z,1.37
2023-04-04T02:53:18.703Z,1.40
2023-04-04T02:55:48.792Z,1.73
2023-04-04T02:58:15.452Z,1.93
2023-04-04T03:00:42.426Z,1.80
2023-04-04T03:03:09.408Z,2.60
2023-04-04T03:05:41.232Z,1.80
2023-04-04T03:08:08.239Z,2.10
2023-04-04T03:10:34.817Z,1.67
2023-04-04T03:13:01.364Z,1.73
2023-04-04T03:15:30.541Z,1.67
2023-04-04T03:17:58.989Z,1.70
2023-04-04T03:20:27.155Z,1.50
2023-04-04T03:22:53.982Z,1.40
2023-04-04T03:25:21.144Z,1.60
2023-04-04T03:27:47.796Z,1.70
2023-04-04T03:30:20.981Z,2.03
2023-04-04T03:32:47.625Z,1.40
2023-04-04T03:35:14.561Z,1.90
2023-04-04T03:37:42.323Z,1.30
2023-04-04T03:40:09.567Z,1.40
2023-04-04T03:42:36.081Z,1.90
2023-04-04T03:45:08.502Z,1.70
2023-04-04T03:47:36.469Z,1.50
2023-04-04T03:50:03.224Z,1.70
2023-04-04T03:52:31.868Z,1.83
2023-04-04T03:54:58.398Z,1.77
2023-04-04T03:57:27.155Z,1.67
2023-04-04T03:59:53.762Z,1.70
2023-04-04T04:02:22.245Z,1.30
2023-04-04T04:04:48.806Z,1.70
2023-04-04T04:07:15.439Z,1.77
2023-04-04T04:09:42.154Z,1.70
2023-04-04T04:12:08.837Z,1.60
2023-04-04T04:14:35.366Z,1.83
2023-04-04T04:17:03.012Z,2.07
2023-04-04T04:19:30.092Z,1.70
2023-04-04T04:21:57.344Z,1.50
2023-04-04T04:24:23.901Z,1.83
2023-04-04T04:26:50.508Z,1.60
2023-04-04T04:29:17.124Z,1.67
2023-04-04T04:31:43.954Z,2.03
2023-04-04T04:34:10.919Z,2.00
2023-04-04T04:36:39.697Z,1.87
2023-04-04T04:39:17.727Z,1.70
2023-04-04T04:41:57.365Z,1.50
2023-04-04T04:44:24.936Z,1.33
2023-04-04T04:46:54.980Z,1.73
2023-04-04T04:49:22.343Z,1.53
2023-04-04T04:51:50.452Z,2.00
2023-04-04T04:54:18.454Z,1.53
2023-04-04T04:56:46.605Z,2.30
2023-04-04T04:59:15.073Z,1.77
2023-04-04T05:01:43.763Z,1.93
2023-04-04T05:04:10.614Z,2.43
2023-04-04T05:06:43.801Z,1.83
2023-04-04T05:09:12.429Z,1.93
2023-04-04T05:11:39.039Z,1.80
2023-04-04T05:14:07.855Z,1.80
2023-04-04T05:16:39.930Z,1.70
2023-04-04T05:19:06.852Z,2.07
2023-04-04T05:21:39.714Z,2.37
2023-04-04T05:24:10.370Z,1.77
2023-04-04T05:26:38.816Z,2.13
2023-04-04T05:29:05.631Z,1.40
2023-04-04T05:31:33.307Z,1.63
2023-04-04T05:34:08.403Z,2.10
2023-04-04T05:36:36.619Z,1.67
2023-04-04T05:39:05.914Z,1.87
2023-04-04T05:41:36.573Z,2.57
2023-04-04T05:44:10.753Z,1.80
2023-04-04T05:46:37.625Z,1.83
2023-04-04T05:51:45.395Z,2.20
2023-04-04T05:54:14.801Z,2.20
2023-04-04T05:56:42.591Z,1.87
2023-04-04T05:59:21.060Z,2.83
2023-04-04T06:01:58.646Z,2.00
2023-04-04T06:04:25.489Z,2.30
2023-04-04T06:06:55.771Z,2.00
2023-04-04T06:09:22.379Z,2.00
2023-04-04T06:11:48.993Z,3.33
2023-04-04T06:14:16.334Z,2.90
2023-04-04T06:16:44.568Z,2.30
2023-04-04T06:19:11.244Z,3.80
2023-04-04T06:21:37.841Z,4.47
2023-04-04T06:24:05.505Z,3.63
2023-04-04T06:26:32.398Z,2.70
2023-04-04T06:29:01.138Z,2.40
2023-04-04T06:31:31.550Z,2.17
2023-04-04T06:34:04.504Z,3.20
2023-04-04T06:36:35.651Z,2.70
2023-04-04T06:39:03.984Z,2.77
2023-04-04T06:41:30.760Z,2.70
2023-04-04T06:43:58.256Z,2.60
2023-04-04T06:46:27.055Z,2.63
2023-04-04T06:48:54.863Z,2.43
2023-04-04T06:51:21.878Z,2.27
2023-04-04T06:53:49.623Z,2.70
2023-04-04T06:56:16.587Z,2.23
2023-04-04T06:58:43.166Z,2.53
2023-04-04T07:01:09.755Z,2.30
2023-04-04T07:03:36.453Z,2.80
2023-04-04T07:06:04.474Z,3.43
2023-04-04T07:08:36.173Z,2.53
2023-04-04T07:11:08.038Z,1.80
2023-04-04T07:13:35.464Z,2.83
2023-04-04T07:16:02.697Z,2.23
2023-04-04T07:18:29.319Z,3.07
2023-04-04T07:20:55.960Z,1.93
2023-04-04T07:23:22.484Z,2.77
2023-04-04T07:25:49.771Z,1.90
2023-04-04T07:28:16.635Z,2.00
2023-04-04T07:30:43.375Z,1.90
2023-04-04T07:33:10.019Z,2.40
2023-04-04T07:35:36.653Z,2.60
2023-04-04T07:38:04.292Z,2.17
2023-04-04T07:40:32.055Z,2.13
2023-04-04T07:42:58.646Z,2.53
2023-04-04T07:45:25.455Z,2.60
2023-04-04T07:47:52.413Z,2.03
2023-04-04T07:50:19.100Z,2.83
2023-04-04T07:52:51.475Z,2.20
2023-04-04T07:55:19.513Z,2.73
2023-04-04T07:57:47.203Z,2.50
2023-04-04T08:00:14.583Z,2.50
2023-04-04T08:02:43.822Z,2.27
2023-04-04T08:05:10.479Z,2.10
2023-04-04T08:07:37.063Z,2.30
2023-04-04T08:10:03.802Z,2.47
2023-04-04T08:12:30.359Z,2.27
2023-04-04T08:14:57.007Z,2.10
2023-04-04T08:17:23.749Z,2.40
2023-04-04T08:19:50.477Z,2.37
2023-04-04T08:22:17.001Z,2.53
2023-04-04T08:24:44.604Z,2.00
2023-04-04T08:27:11.250Z,3.00
2023-04-04T08:29:38.185Z,2.00
2023-04-04T08:32:05.127Z,2.50
2023-04-04T08:34:32.167Z,2.90
2023-04-04T08:37:00.090Z,2.80
2023-04-04T08:39:27.342Z,2.30
2023-04-04T08:42:02.932Z,2.50
2023-04-04T08:44:30.742Z,2.10
2023-04-04T08:47:00.411Z,2.43
2023-04-04T08:49:29.351Z,2.53
2023-04-04T08:51:57.518Z,2.07
2023-04-04T08:54:25.990Z,2.10
2023-04-04T08:56:53.103Z,2.20
2023-04-04T08:59:20.942Z,2.57
2023-04-04T09:01:47.983Z,2.37
2023-04-04T09:04:16.162Z,2.47
2023-04-04T09:06:43.603Z,3.10
2023-04-04T09:09:10.452Z,2.90
2023-04-04T09:11:39.140Z,2.90
2023-04-04T09:14:05.819Z,2.10
2023-04-04T09:16:32.595Z,2.63
2023-04-04T09:18:59.185Z,2.00
2023-04-04T09:21:26.307Z,2.50
2023-04-04T09:24:00.263Z,1.93
2023-04-04T09:26:27.151Z,1.90
2023-04-04T09:28:53.772Z,1.63
2023-04-04T09:31:20.743Z,2.23
2023-04-04T09:33:49.144Z,1.70
2023-04-04T09:36:18.167Z,2.10
2023-04-04T09:38:49.375Z,2.43
2023-04-04T09:41:16.693Z,2.23
2023-04-04T09:43:46.955Z,1.63
2023-04-04T09:46:13.689Z,2.20
2023-04-04T09:48:41.154Z,2.60
2023-04-04T09:51:12.443Z,2.10
2023-04-04T09:53:42.539Z,3.47
2023-04-04T09:56:09.444Z,2.93
2023-04-04T09:58:36.616Z,2.17
2023-04-04T10:01:08.537Z,1.80
2023-04-04T10:03:38.147Z,3.10
2023-04-04T10:06:10.466Z,2.30
2023-04-04T10:08:40.541Z,2.60
2023-04-04T10:11:11.829Z,3.03
2023-04-04T10:13:41.745Z,1.80
2023-04-04T10:16:09.231Z,2.20
2023-04-04T10:18:37.001Z,3.10
2023-04-04T10:23:36.943Z,4.87
2023-04-04T10:26:03.478Z,4.60
2023-04-04T10:28:31.308Z,3.23
2023-04-04T10:31:07.745Z,2.60
2023-04-04T10:33:50.392Z,4.20
2023-04-04T10:36:22.615Z,2.30
2023-04-04T10:38:59.684Z,2.87
2023-04-04T10:41:31.390Z,5.30
2023-04-04T10:44:01.103Z,3.80
2023-04-04T10:46:31.924Z,5.60
2023-04-04T10:49:00.301Z,2.37
2023-04-04T10:51:27.130Z,2.50
2023-04-04T10:53:54.918Z,2.10
2023-04-04T10:56:22.456Z,2.20
2023-04-04T10:58:49.761Z,4.60
2023-04-04T11:01:20.950Z,2.63
2023-04-04T11:04:21.442Z,4.00
2023-04-04T11:07:07.026Z,2.70
2023-04-04T11:09:56.919Z,4.27
2023-04-04T11:12:31.194Z,3.67
2023-04-04T11:15:09.779Z,2.80
2023-04-04T11:17:49.854Z,2.60
2023-04-04T11:20:18.425Z,2.70
2023-04-04T11:22:45.670Z,2.50
2023-04-04T11:25:33.760Z,2.03
2023-04-04T11:28:05.948Z,2.90
2023-04-04T11:30:37.849Z,3.70
2023-04-04T11:33:08.042Z,3.23
2023-04-04T11:35:39.198Z,4.43
2023-04-04T11:38:14.549Z,2.17
2023-04-04T11:40:42.891Z,3.33
2023-04-04T11:43:11.344Z,2.37
2023-04-04T11:45:44.559Z,2.90
2023-04-04T11:48:12.724Z,2.87
2023-04-04T11:50:41.406Z,2.20
2023-04-04T11:53:10.250Z,2.03
2023-04-04T11:55:42.862Z,2.20
2023-04-04T11:58:13.001Z,4.00
2023-04-04T12:00:41.495Z,2.53
2023-04-04T12:03:13.733Z,2.70
2023-04-04T12:05:43.944Z,3.07
2023-04-04T12:08:11.807Z,3.53
2023-04-04T12:10:40.362Z,2.73
2023-04-04T12:13:08.425Z,2.93
2023-04-04T12:15:36.154Z,2.70
2023-04-04T12:18:09.833Z,3.23
2023-04-04T12:20:41.108Z,1.97
2023-04-04T12:23:07.758Z,1.80
2023-04-04T12:25:34.917Z,1.90
2023-04-04T12:28:04.246Z,2.20
2023-04-04T12:30:31.435Z,3.03
2023-04-04T12:32:58.455Z,3.17
2023-04-04T12:35:25.029Z,6.20
2023-04-04T12:38:07.298Z,2.30
2023-04-04T12:40:37.387Z,3.40
2023-04-04T12:43:08.831Z,4.23
2023-04-04T12:45:40.298Z,3.53
2023-04-04T12:48:15.376Z,3.70
2023-04-04T12:50:59.006Z,1.93
2023-04-04T12:56:14.587Z,2.13
2023-04-04T12:58:41.299Z,2.17
2023-04-04T13:01:09.352Z,2.20
2023-04-04T13:03:37.896Z,2.37
2023-04-04T13:06:12.289Z,2.30
2023-04-04T13:08:49.234Z,5.87
2023-04-04T13:11:15.777Z,3.00
2023-04-04T13:13:44.005Z,2.40
2023-04-04T13:16:14.424Z,5.03
2023-04-04T13:18:43.405Z,3.20
2023-04-04T13:21:13.175Z,2.13
2023-04-04T13:23:41.490Z,4.47
2023-04-04T13:26:09.886Z,2.70
2023-04-04T13:28:36.762Z,5.80
2023-04-04T13:31:05.285Z,9.00
2023-04-04T13:33:32.393Z,3.80
2023-04-04T13:35:59.457Z,7.33
2023-04-04T13:38:27.708Z,5.23
2023-04-04T13:40:58.252Z,2.20
2023-04-04T13:43:25.309Z,3.60
2023-04-04T13:45:53.320Z,4.30
2023-04-04T13:48:19.848Z,2.40
2023-04-04T13:50:51.165Z,2.10
2023-04-04T13:53:18.122Z,2.87
2023-04-04T13:55:57.371Z,1.70
2023-04-04T13:58:31.483Z,2.23
2023-04-04T14:00:57.988Z,4.73
2023-04-04T14:03:24.578Z,3.10
2023-04-04T14:05:51.101Z,2.63
2023-04-04T14:08:17.678Z,2.40
2023-04-04T14:10:44.579Z,2.63
2023-04-04T14:13:11.377Z,2.80
2023-04-04T14:15:39.968Z,3.00
2023-04-04T14:18:07.398Z,2.17
2023-04-04T14:20:35.113Z,3.63
2023-04-04T14:23:01.744Z,3.27
2023-04-04T14:25:28.237Z,2.50
2023-04-04T14:27:55.262Z,3.90
2023-04-04T14:30:21.821Z,3.10
2023-04-04T14:32:49.646Z,2.80
2023-04-04T14:35:16.172Z,3.50
2023-04-04T14:37:42.785Z,2.63
2023-04-04T14:40:09.727Z,2.57
2023-04-04T14:42:36.680Z,2.10
2023-04-04T14:45:07.488Z,2.90
2023-04-04T14:47:35.007Z,2.80
2023-04-04T14:50:01.860Z,2.07
2023-04-04T14:52:31.284Z,2.83
2023-04-04T14:54:58.192Z,3.13
2023-04-04T14:57:24.810Z,2.30
2023-04-04T14:59:51.407Z,2.50
2023-04-04T15:02:18.274Z,2.77
2023-04-04T15:04:45.068Z,2.33
2023-04-04T15:07:11.676Z,2.23
2023-04-04T15:09:38.163Z,2.20
2023-04-04T15:12:04.698Z,2.40
2023-04-04T15:14:31.319Z,2.47
2023-04-04T15:16:58.440Z,2.10
2023-04-04T15:19:24.985Z,2.27
2023-04-04T15:21:51.617Z,2.43
2023-04-04T15:24:18.107Z,2.30
2023-04-04T15:26:44.634Z,2.20
2023-04-04T15:29:11.187Z,2.47
2023-04-04T15:31:38.209Z,2.70
2023-04-04T15:34:04.733Z,2.77
2023-04-04T15:36:33.444Z,1.60
2023-04-04T15:38:59.961Z,2.57
2023-04-04T15:41:27.084Z,2.03
2023-04-04T15:43:53.581Z,2.20
2023-04-04T15:46:20.246Z,2.60
2023-04-04T15:48:47.964Z,2.43
2023-04-04T15:51:14.545Z,2.37
2023-04-04T15:53:41.061Z,2.90
2023-04-04T15:56:07.605Z,2.90
2023-04-04T15:58:34.149Z,2.60
2023-04-04T16:01:00.908Z,5.97
2023-04-04T16:03:27.512Z,2.80
2023-04-04T16:05:54.193Z,2.63
2023-04-04T16:08:20.883Z,4.30
2023-04-04T16:10:47.507Z,4.27
2023-04-04T16:13:14.096Z,2.60
2023-04-04T16:15:40.852Z,2.10
2023-04-04T16:18:07.793Z,3.70
2023-04-04T16:20:35.130Z,2.57
2023-04-04T16:23:01.673Z,3.20
2023-04-04T16:25:28.354Z,2.10
2023-04-04T16:27:54.901Z,2.80
2023-04-04T16:30:21.387Z,2.63
2023-04-04T16:32:48.018Z,2.47
2023-04-04T16:35:15.045Z,2.83
2023-04-04T16:37:41.639Z,2.30
2023-04-04T16:40:08.900Z,2.40
2023-04-04T16:42:35.548Z,2.03
2023-04-04T16:45:02.367Z,2.30
2023-04-04T16:47:28.937Z,2.43
2023-04-04T16:49:55.487Z,2.40
2023-04-04T16:52:22.072Z,5.07
2023-04-04T16:54:48.698Z,4.20
2023-04-04T16:57:15.207Z,2.87
2023-04-04T16:59:41.820Z,3.77
2023-04-04T17:02:08.618Z,3.10
2023-04-04T17:04:35.496Z,2.43
2023-04-04T17:07:02.790Z,2.43
2023-04-04T17:09:29.874Z,3.60
2023-04-04T17:11:57.256Z,2.47
2023-04-04T17:14:25.847Z,2.80
2023-04-04T17:16:53.353Z,3.50
2023-04-04T17:19:20.181Z,2.90
2023-04-04T17:21:47.079Z,4.13
2023-04-04T17:24:14.292Z,2.90
2023-04-04T17:26:40.816Z,2.60
2023-04-04T17:29:07.327Z,3.43
2023-04-04T17:31:33.960Z,2.70
2023-04-04T17:34:00.537Z,2.90
2023-04-04T17:36:27.223Z,2.50
2023-04-04T17:38:53.893Z,3.10
2023-04-04T17:41:20.540Z,2.93
2023-04-04T17:43:47.054Z,4.90
2023-04-04T17:46:15.726Z,4.30
2023-04-04T17:48:42.948Z,3.30
2023-04-04T17:51:09.509Z,3.73
2023-04-04T17:53:36.520Z,6.50
2023-04-04T17:56:03.290Z,5.43
2023-04-04T17:58:29.796Z,4.90
2023-04-04T18:00:57.520Z,3.30
2023-04-04T18:03:24.323Z,3.67
2023-04-04T18:05:52.792Z,3.40
2023-04-04T18:08:19.827Z,3.47
2023-04-04T18:10:46.350Z,3.23
2023-04-04T18:13:12.951Z,3.30
2023-04-04T18:15:39.621Z,2.97
2023-04-04T18:18:06.561Z,3.00
2023-04-04T18:20:35.450Z,2.63
2023-04-04T18:23:04.145Z,3.77
2023-04-04T18:25:33.725Z,2.80
2023-04-04T18:28:01.950Z,3.17
2023-04-04T18:30:28.517Z,2.80
2023-04-04T18:32:56.550Z,2.50
2023-04-04T18:35:23.569Z,2.90
2023-04-04T18:37:50.088Z,3.70
2023-04-04T18:40:17.583Z,3.33
2023-04-04T18:42:44.955Z,2.93
2023-04-04T18:45:11.949Z,4.00
2023-04-04T18:47:40.064Z,4.87
2023-04-04T18:50:08.235Z,4.77
2023-04-04T18:52:36.120Z,3.80
2023-04-04T18:55:04.401Z,3.80
2023-04-04T18:57:33.364Z,4.30
2023-04-04T19:00:00.212Z,4.90
2023-04-04T19:02:27.127Z,4.40
2023-04-04T19:04:57.284Z,4.47
2023-04-04T19:07:26.546Z,3.90
2023-04-04T19:09:53.782Z,2.83
2023-04-04T19:12:20.294Z,3.73
2023-04-04T19:14:47.115Z,3.80
2023-04-04T19:17:15.585Z,3.70
2023-04-04T19:19:43.330Z,4.87
2023-04-04T19:22:10.530Z,4.93
2023-04-04T19:24:38.765Z,8.37
2023-04-04T19:27:05.423Z,8.13
2023-04-04T19:29:35.533Z,6.80
2023-04-04T19:32:10.107Z,6.10
2023-04-04T19:34:37.134Z,4.87
2023-04-04T19:37:04.243Z,4.90
2023-04-04T19:39:33.857Z,4.30
2023-04-04T19:42:01.919Z,4.70
2023-04-04T19:44:28.654Z,3.10
2023-04-04T19:46:55.242Z,7.10
2023-04-04T19:49:27.998Z,5.53
2023-04-04T19:51:56.869Z,5.93
2023-04-04T19:54:34.074Z,6.30
2023-04-04T19:57:13.191Z,4.67
2023-04-04T19:59:59.363Z,4.53
2023-04-04T20:02:34.996Z,3.80
2023-04-04T20:05:02.140Z,4.17
2023-04-04T20:07:29.031Z,4.13
2023-04-04T20:09:55.939Z,4.70
2023-04-04T20:12:24.510Z,3.50
2023-04-04T20:14:54.197Z,4.40
2023-04-04T20:17:20.697Z,4.13
2023-04-04T20:19:48.376Z,5.87
2023-04-04T20:22:16.344Z,5.13
2023-04-04T20:24:44.924Z,5.83
2023-04-04T20:27:25.245Z,7.23
2023-04-04T20:29:53.305Z,5.97
2023-04-04T20:32:19.955Z,6.50
2023-04-04T20:34:49.233Z,6.80
2023-04-04T20:37:25.997Z,7.33
2023-04-04T20:39:57.067Z,8.37
2023-04-04T20:42:33.736Z,7.90
2023-04-04T20:45:12.962Z,8.03
2023-04-04T20:47:46.676Z,7.93
2023-04-04T20:50:16.130Z,7.67
2023-04-04T20:52:46.813Z,7.50
2023-04-04T20:55:13.811Z,6.07
2023-04-04T20:57:40.426Z,6.60
2023-04-04T21:00:29.983Z,5.90
2023-04-04T21:02:58.648Z,5.90
2023-04-04T21:05:45.815Z,5.03
2023-04-04T21:08:34.605Z,4.30
2023-04-04T21:11:01.205Z,5.20
2023-04-04T21:13:32.104Z,4.87
2023-04-04T21:16:06.644Z,4.93
2023-04-04T21:18:33.962Z,4.57
2023-04-04T21:21:11.105Z,5.47
2023-04-04T21:23:45.789Z,4.83
2023-04-04T21:26:21.772Z,4.73
2023-04-04T21:28:48.769Z,4.77
2023-04-04T21:31:16.725Z,4.23
2023-04-04T21:33:44.570Z,5.10
2023-04-04T21:36:24.546Z,4.47
2023-04-04T21:39:02.449Z,5.20
2023-04-04T21:41:31.028Z,5.10
2023-04-04T21:43:59.710Z,5.33
2023-04-04T21:46:28.834Z,5.30
2023-04-04T21:48:56.172Z,5.43
2023-04-04T21:51:22.963Z,5.67
2023-04-04T21:53:50.977Z,5.43
2023-04-04T21:56:18.268Z,6.33
2023-04-04T21:58:45.433Z,5.80
2023-04-04T22:01:11.957Z,4.90
2023-04-04T22:03:39.101Z,5.33
2023-04-04T22:06:06.183Z,5.00
2023-04-04T22:08:33.032Z,6.27
2023-04-04T22:11:02.072Z,5.83
2023-04-04T22:13:35.396Z,6.40
2023-04-04T22:16:04.587Z,6.57
2023-04-04T22:18:33.088Z,7.70
2023-04-04T22:21:04.710Z,7.50
2023-04-04T22:23:35.805Z,7.07
2023-04-04T22:26:05.282Z,6.73
2023-04-04T22:28:37.717Z,6.90
2023-04-04T22:31:05.550Z,7.70
2023-04-04T22:33:34.044Z,7.20
2023-04-04T22:36:01.831Z,7.80
2023-04-04T22:38:29.348Z,7.40
2023-04-04T22:40:57.335Z,7.67
2023-04-04T22:43:25.649Z,7.23
2023-04-04T22:45:53.106Z,6.67
2023-04-04T22:48:22.951Z,7.73
2023-04-04T22:50:51.298Z,8.40
2023-04-04T22:53:24.602Z,7.67
2023-04-04T22:55:58.456Z,7.77
2023-04-04T22:58:25.393Z,7.30
2023-04-04T23:00:52.014Z,7.43
2023-04-04T23:03:18.787Z,6.80
2023-04-04T23:05:45.349Z,6.80
2023-04-04T23:08:11.851Z,6.13
2023-04-04T23:10:38.739Z,8.07
2023-04-04T23:13:05.453Z,7.00
2023-04-04T23:15:35.493Z,5.73
2023-04-04T23:18:02.543Z,7.17
2023-04-04T23:20:32.088Z,6.97
2023-04-04T23:22:59.087Z,6.20
2023-04-04T23:25:26.375Z,6.30
2023-04-04T23:27:53.370Z,7.20
2023-04-04T23:30:20.442Z,6.80
2023-04-04T23:32:46.966Z,7.23
2023-04-04T23:35:13.600Z,7.63
2023-04-04T23:37:40.160Z,6.97
2023-04-04T23:40:07.685Z,7.80
2023-04-04T23:42:34.258Z,7.17
2023-04-04T23:45:02.158Z,6.60
2023-04-04T23:47:29.079Z,5.70
2023-04-04T23:49:56.072Z,6.60
2023-04-04T23:52:23.113Z,6.60
2023-04-04T23:54:49.671Z,6.10
2023-04-04T23:57:16.507Z,6.27
2023-04-04T23:59:42.972Z,5.97
